sensor_id;sensor_type;location;lat;lon;timestamp;P1;durP1;ratioP1;P2;durP2;ratioP2
24745;SDS011;12845;52.042;6.838;2023-03-31T00:01:23;10.73;;;2.42;;
24745;SDS011;12845;52.042;6.838;2023-03-31T00:03:49;9.15;;;2.70;;
24745;SDS011;12845;52.042;6.838;2023-03-31T00:06:14;9.02;;;2.83;;
24745;SDS011;12845;52.042;6.838;2023-03-31T00:08:43;11.43;;;2.88;;
24745;SDS011;12845;52.042;6.838;2023-03-31T00:11:09;10.70;;;3.40;;
24745;SDS011;12845;52.042;6.838;2023-03-31T00:13:35;9.63;;;2.80;;
24745;SDS011;12845;52.042;6.838;2023-03-31T00:16:03;10.77;;;2.50;;
24745;SDS011;12845;52.042;6.838;2023-03-31T00:18:31;11.07;;;3.47;;
24745;SDS011;12845;52.042;6.838;2023-03-31T00:21:15;5.78;;;2.80;;
24745;SDS011;12845;52.042;6.838;2023-03-31T00:23:49;10.93;;;3.03;;
24745;SDS011;12845;52.042;6.838;2023-03-31T00:26:17;7.30;;;2.83;;
24745;SDS011;12845;52.042;6.838;2023-03-31T00:28:42;8.13;;;2.40;;
24745;SDS011;12845;52.042;6.838;2023-03-31T00:31:07;9.90;;;2.33;;
24745;SDS011;12845;52.042;6.838;2023-03-31T00:33:33;7.60;;;2.30;;
24745;SDS011;12845;52.042;6.838;2023-03-31T00:35:58;10.38;;;3.30;;
24745;SDS011;12845;52.042;6.838;2023-03-31T00:38:26;5.53;;;2.40;;
24745;SDS011;12845;52.042;6.838;2023-03-31T00:40:53;8.77;;;3.00;;
24745;SDS011;12845;52.042;6.838;2023-03-31T00:43:23;10.77;;;2.90;;
24745;SDS011;12845;52.042;6.838;2023-03-31T00:45:55;6.93;;;2.70;;
24745;SDS011;12845;52.042;6.838;2023-03-31T00:48:39;11.18;;;3.35;;
24745;SDS011;12845;52.042;6.838;2023-03-31T00:51:12;7.32;;;2.88;;
24745;SDS011;12845;52.042;6.838;2023-03-31T00:53:38;12.07;;;3.28;;
24745;SDS011;12845;52.042;6.838;2023-03-31T00:56:06;9.48;;;3.70;;
24745;SDS011;12845;52.042;6.838;2023-03-31T00:58:35;6.50;;;3.00;;
24745;SDS011;12845;52.042;6.838;2023-03-31T01:01:07;11.43;;;3.38;;
24745;SDS011;12845;52.042;6.838;2023-03-31T01:03:38;10.80;;;2.92;;
24745;SDS011;12845;52.042;6.838;2023-03-31T01:06:06;9.98;;;2.45;;
24745;SDS011;12845;52.042;6.838;2023-03-31T01:08:34;10.50;;;3.40;;
24745;SDS011;12845;52.042;6.838;2023-03-31T01:11:03;8.77;;;2.92;;
24745;SDS011;12845;52.042;6.838;2023-03-31T01:13:31;5.28;;;3.17;;
24745;SDS011;12845;52.042;6.838;2023-03-31T01:16:00;7.32;;;2.90;;
24745;SDS011;12845;52.042;6.838;2023-03-31T01:18:26;8.38;;;2.67;;
24745;SDS011;12845;52.042;6.838;2023-03-31T01:50:44;13.07;;;3.88;;
24745;SDS011;12845;52.042;6.838;2023-03-31T01:59:01;13.20;;;4.50;;
24745;SDS011;12845;52.042;6.838;2023-03-31T02:01:39;9.43;;;3.05;;
24745;SDS011;12845;52.042;6.838;2023-03-31T02:04:12;10.30;;;4.10;;
24745;SDS011;12845;52.042;6.838;2023-03-31T02:06:44;11.52;;;3.60;;
24745;SDS011;12845;52.042;6.838;2023-03-31T02:09:15;6.93;;;3.53;;
24745;SDS011;12845;52.042;6.838;2023-03-31T02:11:45;8.30;;;3.60;;
24745;SDS011;12845;52.042;6.838;2023-03-31T02:14:12;7.82;;;3.42;;
24745;SDS011;12845;52.042;6.838;2023-03-31T02:16:45;9.50;;;3.85;;
24745;SDS011;12845;52.042;6.838;2023-03-31T02:19:14;12.37;;;5.10;;
24745;SDS011;12845;52.042;6.838;2023-03-31T02:21:43;8.63;;;4.97;;
24745;SDS011;12845;52.042;6.838;2023-03-31T02:24:12;12.20;;;4.53;;
24745;SDS011;12845;52.042;6.838;2023-03-31T02:29:33;11.65;;;4.85;;
24745;SDS011;12845;52.042;6.838;2023-03-31T02:34:32;11.88;;;5.25;;
24745;SDS011;12845;52.042;6.838;2023-03-31T02:36:57;11.57;;;5.43;;
24745;SDS011;12845;52.042;6.838;2023-03-31T02:39:24;15.93;;;5.95;;
24745;SDS011;12845;52.042;6.838;2023-03-31T02:41:54;12.90;;;5.90;;
24745;SDS011;12845;52.042;6.838;2023-03-31T02:44:20;13.30;;;6.05;;
24745;SDS011;12845;52.042;6.838;2023-03-31T02:46:46;10.77;;;6.00;;
24745;SDS011;12845;52.042;6.838;2023-03-31T02:49:12;10.85;;;6.13;;
24745;SDS011;12845;52.042;6.838;2023-03-31T02:54:51;12.85;;;6.72;;
24745;SDS011;12845;52.042;6.838;2023-03-31T02:57:43;9.13;;;6.35;;
24745;SDS011;12845;52.042;6.838;2023-03-31T03:00:32;12.43;;;7.40;;
24745;SDS011;12845;52.042;6.838;2023-03-31T03:06:08;17.27;;;7.85;;
24745;SDS011;12845;52.042;6.838;2023-03-31T03:08:52;12.30;;;6.72;;
24745;SDS011;12845;52.042;6.838;2023-03-31T03:11:22;11.30;;;6.60;;
24745;SDS011;12845;52.042;6.838;2023-03-31T03:17:05;16.02;;;7.80;;
24745;SDS011;12845;52.042;6.838;2023-03-31T03:19:49;15.88;;;6.30;;
24745;SDS011;12845;52.042;6.838;2023-03-31T03:22:16;12.10;;;5.82;;
24745;SDS011;12845;52.042;6.838;2023-03-31T03:24:42;11.98;;;5.70;;
24745;SDS011;12845;52.042;6.838;2023-03-31T03:27:07;11.55;;;5.80;;
24745;SDS011;12845;52.042;6.838;2023-03-31T03:29:32;13.05;;;6.32;;
24745;SDS011;12845;52.042;6.838;2023-03-31T03:31:58;12.07;;;5.93;;
24745;SDS011;12845;52.042;6.838;2023-03-31T03:34:23;14.45;;;5.45;;
24745;SDS011;12845;52.042;6.838;2023-03-31T03:36:49;16.08;;;5.50;;
24745;SDS011;12845;52.042;6.838;2023-03-31T03:39:15;13.38;;;5.03;;
24745;SDS011;12845;52.042;6.838;2023-03-31T03:41:41;14.75;;;5.93;;
24745;SDS011;12845;52.042;6.838;2023-03-31T03:44:06;10.35;;;4.80;;
24745;SDS011;12845;52.042;6.838;2023-03-31T03:46:31;12.85;;;4.70;;
24745;SDS011;12845;52.042;6.838;2023-03-31T03:48:57;13.38;;;7.25;;
24745;SDS011;12845;52.042;6.838;2023-03-31T03:51:22;16.42;;;8.18;;
24745;SDS011;12845;52.042;6.838;2023-03-31T03:53:48;20.27;;;6.90;;
24745;SDS011;12845;52.042;6.838;2023-03-31T03:56:13;13.60;;;6.57;;
24745;SDS011;12845;52.042;6.838;2023-03-31T03:58:39;11.27;;;6.15;;
24745;SDS011;12845;52.042;6.838;2023-03-31T04:01:04;20.00;;;7.93;;
24745;SDS011;12845;52.042;6.838;2023-03-31T04:03:30;15.38;;;6.43;;
24745;SDS011;12845;52.042;6.838;2023-03-31T04:05:55;15.45;;;6.53;;
24745;SDS011;12845;52.042;6.838;2023-03-31T04:08:21;15.77;;;6.63;;
24745;SDS011;12845;52.042;6.838;2023-03-31T04:10:47;19.27;;;7.10;;
24745;SDS011;12845;52.042;6.838;2023-03-31T04:13:14;19.33;;;6.88;;
24745;SDS011;12845;52.042;6.838;2023-03-31T04:15:40;13.38;;;6.05;;
24745;SDS011;12845;52.042;6.838;2023-03-31T04:18:06;14.88;;;6.80;;
24745;SDS011;12845;52.042;6.838;2023-03-31T04:20:34;12.75;;;6.38;;
24745;SDS011;12845;52.042;6.838;2023-03-31T04:23:03;16.80;;;6.63;;
24745;SDS011;12845;52.042;6.838;2023-03-31T04:25:33;12.40;;;6.85;;
24745;SDS011;12845;52.042;6.838;2023-03-31T04:28:02;11.60;;;5.10;;
24745;SDS011;12845;52.042;6.838;2023-03-31T04:30:31;16.43;;;6.47;;
24745;SDS011;12845;52.042;6.838;2023-03-31T04:32:57;15.85;;;5.50;;
24745;SDS011;12845;52.042;6.838;2023-03-31T04:35:25;16.95;;;6.47;;
24745;SDS011;12845;52.042;6.838;2023-03-31T04:38:02;19.80;;;6.60;;
24745;SDS011;12845;52.042;6.838;2023-03-31T04:40:27;17.58;;;5.65;;
24745;SDS011;12845;52.042;6.838;2023-03-31T04:42:53;15.82;;;6.57;;
24745;SDS011;12845;52.042;6.838;2023-03-31T04:45:18;16.35;;;6.00;;
24745;SDS011;12845;52.042;6.838;2023-03-31T04:47:43;12.45;;;6.85;;
24745;SDS011;12845;52.042;6.838;2023-03-31T04:50:09;17.70;;;6.75;;
24745;SDS011;12845;52.042;6.838;2023-03-31T04:52:35;14.35;;;6.63;;
24745;SDS011;12845;52.042;6.838;2023-03-31T04:55:01;15.20;;;7.85;;
24745;SDS011;12845;52.042;6.838;2023-03-31T04:57:26;15.18;;;7.43;;
24745;SDS011;12845;52.042;6.838;2023-03-31T04:59:51;23.02;;;8.95;;
24745;SDS011;12845;52.042;6.838;2023-03-31T05:02:17;21.13;;;6.75;;
24745;SDS011;12845;52.042;6.838;2023-03-31T05:04:47;18.38;;;6.50;;
24745;SDS011;12845;52.042;6.838;2023-03-31T05:07:14;16.48;;;6.28;;
24745;SDS011;12845;52.042;6.838;2023-03-31T05:09:40;16.42;;;6.18;;
24745;SDS011;12845;52.042;6.838;2023-03-31T05:12:05;24.08;;;6.47;;
24745;SDS011;12845;52.042;6.838;2023-03-31T05:14:31;16.13;;;6.18;;
24745;SDS011;12845;52.042;6.838;2023-03-31T05:16:56;18.60;;;6.93;;
24745;SDS011;12845;52.042;6.838;2023-03-31T05:19:23;24.08;;;7.60;;
24745;SDS011;12845;52.042;6.838;2023-03-31T05:21:48;16.63;;;6.88;;
24745;SDS011;12845;52.042;6.838;2023-03-31T05:24:13;15.43;;;5.63;;
24745;SDS011;12845;52.042;6.838;2023-03-31T05:26:39;19.30;;;6.32;;
24745;SDS011;12845;52.042;6.838;2023-03-31T05:29:05;14.02;;;5.28;;
24745;SDS011;12845;52.042;6.838;2023-03-31T05:31:30;16.35;;;5.60;;
24745;SDS011;12845;52.042;6.838;2023-03-31T05:33:56;16.70;;;4.93;;
24745;SDS011;12845;52.042;6.838;2023-03-31T05:36:21;18.48;;;5.68;;
24745;SDS011;12845;52.042;6.838;2023-03-31T05:38:47;18.73;;;5.93;;
24745;SDS011;12845;52.042;6.838;2023-03-31T05:41:13;23.38;;;6.90;;
24745;SDS011;12845;52.042;6.838;2023-03-31T05:43:40;19.90;;;6.00;;
24745;SDS011;12845;52.042;6.838;2023-03-31T05:46:07;15.73;;;6.40;;
24745;SDS011;12845;52.042;6.838;2023-03-31T05:48:33;18.55;;;6.50;;
24745;SDS011;12845;52.042;6.838;2023-03-31T05:50:58;17.77;;;6.13;;
24745;SDS011;12845;52.042;6.838;2023-03-31T05:53:25;23.15;;;7.32;;
24745;SDS011;12845;52.042;6.838;2023-03-31T05:55:58;20.38;;;8.10;;
24745;SDS011;12845;52.042;6.838;2023-03-31T05:58:25;21.85;;;9.25;;
24745;SDS011;12845;52.042;6.838;2023-03-31T06:01:08;26.90;;;10.13;;
24745;SDS011;12845;52.042;6.838;2023-03-31T06:03:36;27.95;;;12.32;;
24745;SDS011;12845;52.042;6.838;2023-03-31T06:06:05;27.17;;;12.23;;
24745;SDS011;12845;52.042;6.838;2023-03-31T06:08:31;24.35;;;11.55;;
24745;SDS011;12845;52.042;6.838;2023-03-31T06:10:57;26.00;;;9.98;;
24745;SDS011;12845;52.042;6.838;2023-03-31T06:13:22;26.27;;;10.85;;
24745;SDS011;12845;52.042;6.838;2023-03-31T06:15:52;22.95;;;10.85;;
24745;SDS011;12845;52.042;6.838;2023-03-31T06:18:18;28.42;;;10.65;;
24745;SDS011;12845;52.042;6.838;2023-03-31T06:20:43;23.17;;;10.20;;
24745;SDS011;12845;52.042;6.838;2023-03-31T06:23:08;19.40;;;8.05;;
24745;SDS011;12845;52.042;6.838;2023-03-31T06:25:36;16.20;;;7.65;;
24745;SDS011;12845;52.042;6.838;2023-03-31T06:28:02;20.60;;;7.88;;
24745;SDS011;12845;52.042;6.838;2023-03-31T06:30:27;14.38;;;6.47;;
24745;SDS011;12845;52.042;6.838;2023-03-31T06:32:53;18.90;;;7.80;;
24745;SDS011;12845;52.042;6.838;2023-03-31T06:35:18;14.55;;;6.70;;
24745;SDS011;12845;52.042;6.838;2023-03-31T06:37:43;13.57;;;5.97;;
24745;SDS011;12845;52.042;6.838;2023-03-31T06:40:09;18.20;;;6.95;;
24745;SDS011;12845;52.042;6.838;2023-03-31T06:42:35;15.93;;;6.43;;
24745;SDS011;12845;52.042;6.838;2023-03-31T06:45:00;16.23;;;6.70;;
24745;SDS011;12845;52.042;6.838;2023-03-31T06:47:25;14.13;;;6.03;;
24745;SDS011;12845;52.042;6.838;2023-03-31T06:49:51;17.27;;;6.40;;
24745;SDS011;12845;52.042;6.838;2023-03-31T06:52:16;13.40;;;4.45;;
24745;SDS011;12845;52.042;6.838;2023-03-31T06:54:41;13.80;;;5.53;;
24745;SDS011;12845;52.042;6.838;2023-03-31T06:57:07;11.77;;;5.85;;
24745;SDS011;12845;52.042;6.838;2023-03-31T06:59:32;11.95;;;5.90;;
24745;SDS011;12845;52.042;6.838;2023-03-31T07:01:57;14.18;;;5.55;;
24745;SDS011;12845;52.042;6.838;2023-03-31T07:04:23;13.52;;;5.10;;
24745;SDS011;12845;52.042;6.838;2023-03-31T07:06:48;9.30;;;4.90;;
24745;SDS011;12845;52.042;6.838;2023-03-31T07:09:13;16.58;;;5.28;;
24745;SDS011;12845;52.042;6.838;2023-03-31T07:11:39;11.05;;;4.50;;
24745;SDS011;12845;52.042;6.838;2023-03-31T07:14:05;12.57;;;4.60;;
24745;SDS011;12845;52.042;6.838;2023-03-31T07:16:30;10.18;;;4.97;;
24745;SDS011;12845;52.042;6.838;2023-03-31T07:18:55;12.63;;;4.65;;
24745;SDS011;12845;52.042;6.838;2023-03-31T07:21:21;8.65;;;3.90;;
24745;SDS011;12845;52.042;6.838;2023-03-31T07:23:47;13.02;;;4.80;;
24745;SDS011;12845;52.042;6.838;2023-03-31T07:26:12;11.50;;;3.72;;
24745;SDS011;12845;52.042;6.838;2023-03-31T07:28:38;10.50;;;4.00;;
24745;SDS011;12845;52.042;6.838;2023-03-31T07:31:09;7.57;;;3.72;;
24745;SDS011;12845;52.042;6.838;2023-03-31T07:33:35;9.30;;;3.20;;
24745;SDS011;12845;52.042;6.838;2023-03-31T07:36:03;8.90;;;3.75;;
24745;SDS011;12845;52.042;6.838;2023-03-31T07:40:55;8.45;;;3.92;;
24745;SDS011;12845;52.042;6.838;2023-03-31T07:43:20;8.88;;;3.20;;
24745;SDS011;12845;52.042;6.838;2023-03-31T07:45:45;11.15;;;3.95;;
24745;SDS011;12845;52.042;6.838;2023-03-31T07:48:11;13.63;;;4.00;;
24745;SDS011;12845;52.042;6.838;2023-03-31T07:50:36;8.10;;;3.80;;
24745;SDS011;12845;52.042;6.838;2023-03-31T07:53:02;9.18;;;4.32;;
24745;SDS011;12845;52.042;6.838;2023-03-31T07:55:27;8.75;;;3.75;;
24745;SDS011;12845;52.042;6.838;2023-03-31T07:57:53;8.50;;;3.80;;
24745;SDS011;12845;52.042;6.838;2023-03-31T08:00:18;8.60;;;4.07;;
24745;SDS011;12845;52.042;6.838;2023-03-31T08:02:45;9.18;;;4.65;;
24745;SDS011;12845;52.042;6.838;2023-03-31T08:05:11;8.77;;;3.92;;
24745;SDS011;12845;52.042;6.838;2023-03-31T08:07:38;9.45;;;3.78;;
24745;SDS011;12845;52.042;6.838;2023-03-31T08:10:06;10.40;;;3.95;;
24745;SDS011;12845;52.042;6.838;2023-03-31T08:12:40;13.20;;;5.53;;
24745;SDS011;12845;52.042;6.838;2023-03-31T08:15:05;7.95;;;3.95;;
24745;SDS011;12845;52.042;6.838;2023-03-31T08:17:31;6.85;;;3.90;;
24745;SDS011;12845;52.042;6.838;2023-03-31T08:19:57;7.53;;;3.40;;
24745;SDS011;12845;52.042;6.838;2023-03-31T08:22:22;7.53;;;4.65;;
24745;SDS011;12845;52.042;6.838;2023-03-31T08:24:47;7.22;;;3.40;;
24745;SDS011;12845;52.042;6.838;2023-03-31T08:27:13;6.18;;;3.20;;
24745;SDS011;12845;52.042;6.838;2023-03-31T08:29:38;5.75;;;3.20;;
24745;SDS011;12845;52.042;6.838;2023-03-31T08:32:04;10.00;;;2.70;;
24745;SDS011;12845;52.042;6.838;2023-03-31T08:34:30;5.82;;;3.20;;
24745;SDS011;12845;52.042;6.838;2023-03-31T08:36:56;6.70;;;2.50;;
24745;SDS011;12845;52.042;6.838;2023-03-31T08:39:21;4.20;;;1.95;;
24745;SDS011;12845;52.042;6.838;2023-03-31T08:41:54;4.60;;;2.50;;
24745;SDS011;12845;52.042;6.838;2023-03-31T08:46:50;6.57;;;3.03;;
24745;SDS011;12845;52.042;6.838;2023-03-31T08:49:19;5.22;;;2.50;;
24745;SDS011;12845;52.042;6.838;2023-03-31T08:51:53;5.82;;;2.80;;
24745;SDS011;12845;52.042;6.838;2023-03-31T08:54:31;8.18;;;3.08;;
24745;SDS011;12845;52.042;6.838;2023-03-31T08:57:00;4.78;;;3.20;;
24745;SDS011;12845;52.042;6.838;2023-03-31T08:59:26;7.03;;;3.30;;
24745;SDS011;12845;52.042;6.838;2023-03-31T09:01:57;8.82;;;3.30;;
24745;SDS011;12845;52.042;6.838;2023-03-31T09:07:05;9.07;;;3.20;;
24745;SDS011;12845;52.042;6.838;2023-03-31T09:10:09;11.02;;;5.03;;
24745;SDS011;12845;52.042;6.838;2023-03-31T09:12:56;9.60;;;4.50;;
24745;SDS011;12845;52.042;6.838;2023-03-31T09:15:35;6.32;;;3.03;;
24745;SDS011;12845;52.042;6.838;2023-03-31T09:18:12;5.68;;;2.42;;
24745;SDS011;12845;52.042;6.838;2023-03-31T09:20:43;7.25;;;3.85;;
24745;SDS011;12845;52.042;6.838;2023-03-31T09:23:27;6.22;;;4.38;;
24745;SDS011;12845;52.042;6.838;2023-03-31T09:25:55;5.55;;;3.72;;
24745;SDS011;12845;52.042;6.838;2023-03-31T09:28:28;10.07;;;3.80;;
24745;SDS011;12845;52.042;6.838;2023-03-31T09:30:58;9.48;;;4.40;;
24745;SDS011;12845;52.042;6.838;2023-03-31T09:33:28;12.50;;;4.73;;
24745;SDS011;12845;52.042;6.838;2023-03-31T09:35:58;7.10;;;4.80;;
24745;SDS011;12845;52.042;6.838;2023-03-31T09:38:24;9.77;;;5.35;;
24745;SDS011;12845;52.042;6.838;2023-03-31T09:43:23;14.40;;;5.32;;
24745;SDS011;12845;52.042;6.838;2023-03-31T09:45:50;12.20;;;5.63;;
24745;SDS011;12845;52.042;6.838;2023-03-31T09:48:27;11.63;;;6.00;;
24745;SDS011;12845;52.042;6.838;2023-03-31T09:50:58;12.77;;;6.13;;
24745;SDS011;12845;52.042;6.838;2023-03-31T09:53:40;11.68;;;5.20;;
24745;SDS011;12845;52.042;6.838;2023-03-31T09:56:11;12.05;;;6.28;;
24745;SDS011;12845;52.042;6.838;2023-03-31T09:58:40;11.13;;;5.00;;
24745;SDS011;12845;52.042;6.838;2023-03-31T10:01:07;11.25;;;5.50;;
24745;SDS011;12845;52.042;6.838;2023-03-31T10:06:32;13.40;;;5.25;;
24745;SDS011;12845;52.042;6.838;2023-03-31T10:09:06;9.80;;;4.90;;
24745;SDS011;12845;52.042;6.838;2023-03-31T10:11:34;9.63;;;4.60;;
24745;SDS011;12845;52.042;6.838;2023-03-31T10:16:50;9.63;;;4.20;;
24745;SDS011;12845;52.042;6.838;2023-03-31T10:21:48;11.52;;;4.22;;
24745;SDS011;12845;52.042;6.838;2023-03-31T10:24:20;13.35;;;4.93;;
24745;SDS011;12845;52.042;6.838;2023-03-31T10:26:49;13.75;;;5.20;;
24745;SDS011;12845;52.042;6.838;2023-03-31T10:29:30;11.02;;;4.53;;
24745;SDS011;12845;52.042;6.838;2023-03-31T10:32:01;13.38;;;4.18;;
24745;SDS011;12845;52.042;6.838;2023-03-31T10:34:47;12.52;;;5.05;;
24745;SDS011;12845;52.042;6.838;2023-03-31T10:37:14;12.38;;;4.80;;
24745;SDS011;12845;52.042;6.838;2023-03-31T10:39:43;15.13;;;5.18;;
24745;SDS011;12845;52.042;6.838;2023-03-31T10:42:11;13.23;;;4.15;;
24745;SDS011;12845;52.042;6.838;2023-03-31T10:44:44;14.15;;;3.83;;
24745;SDS011;12845;52.042;6.838;2023-03-31T10:49:39;13.35;;;3.35;;
24745;SDS011;12845;52.042;6.838;2023-03-31T10:52:19;9.60;;;3.25;;
24745;SDS011;12845;52.042;6.838;2023-03-31T10:54:47;13.85;;;3.40;;
24745;SDS011;12845;52.042;6.838;2023-03-31T10:57:16;9.10;;;3.35;;
24745;SDS011;12845;52.042;6.838;2023-03-31T11:22:04;8.18;;;2.30;;
24745;SDS011;12845;52.042;6.838;2023-03-31T11:24:49;10.85;;;2.78;;
24745;SDS011;12845;52.042;6.838;2023-03-31T11:27:42;14.00;;;2.45;;
24745;SDS011;12845;52.042;6.838;2023-03-31T11:30:16;12.40;;;2.55;;
24745;SDS011;12845;52.042;6.838;2023-03-31T11:45:54;12.05;;;2.40;;
24745;SDS011;12845;52.042;6.838;2023-03-31T11:48:34;11.23;;;2.40;;
24745;SDS011;12845;52.042;6.838;2023-03-31T11:51:06;7.63;;;2.03;;
24745;SDS011;12845;52.042;6.838;2023-03-31T11:53:38;7.63;;;2.17;;
24745;SDS011;12845;52.042;6.838;2023-03-31T11:56:07;10.27;;;2.50;;
24745;SDS011;12845;52.042;6.838;2023-03-31T11:58:48;11.25;;;3.15;;
24745;SDS011;12845;52.042;6.838;2023-03-31T12:01:23;12.95;;;3.30;;
24745;SDS011;12845;52.042;6.838;2023-03-31T12:06:40;8.40;;;1.85;;
24745;SDS011;12845;52.042;6.838;2023-03-31T12:09:26;9.05;;;3.50;;
24745;SDS011;12845;52.042;6.838;2023-03-31T12:14:54;13.27;;;2.58;;
24745;SDS011;12845;52.042;6.838;2023-03-31T12:17:36;7.68;;;1.80;;
24745;SDS011;12845;52.042;6.838;2023-03-31T12:20:10;10.82;;;1.92;;
24745;SDS011;12845;52.042;6.838;2023-03-31T12:22:43;13.13;;;3.03;;
24745;SDS011;12845;52.042;6.838;2023-03-31T12:25:12;8.68;;;1.95;;
24745;SDS011;12845;52.042;6.838;2023-03-31T12:27:41;7.45;;;2.50;;
24745;SDS011;12845;52.042;6.838;2023-03-31T12:30:19;12.13;;;2.30;;
24745;SDS011;12845;52.042;6.838;2023-03-31T12:32:56;8.77;;;2.05;;
24745;SDS011;12845;52.042;6.838;2023-03-31T12:35:31;8.05;;;2.33;;
24745;SDS011;12845;52.042;6.838;2023-03-31T12:38:12;7.72;;;1.92;;
24745;SDS011;12845;52.042;6.838;2023-03-31T12:47:02;7.13;;;1.55;;
24745;SDS011;12845;52.042;6.838;2023-03-31T12:57:34;8.88;;;2.10;;
24745;SDS011;12845;52.042;6.838;2023-03-31T13:00:14;8.18;;;2.50;;
24745;SDS011;12845;52.042;6.838;2023-03-31T13:05:54;7.72;;;2.85;;
24745;SDS011;12845;52.042;6.838;2023-03-31T13:09:05;8.20;;;2.15;;
24745;SDS011;12845;52.042;6.838;2023-03-31T13:11:14;8.75;;;1.80;;
24745;SDS011;12845;52.042;6.838;2023-03-31T13:13:43;10.52;;;1.80;;
24745;SDS011;12845;52.042;6.838;2023-03-31T13:16:30;8.82;;;2.10;;
24745;SDS011;12845;52.042;6.838;2023-03-31T13:18:57;8.82;;;2.05;;
24745;SDS011;12845;52.042;6.838;2023-03-31T13:21:22;10.15;;;2.45;;
24745;SDS011;12845;52.042;6.838;2023-03-31T13:23:48;8.75;;;1.92;;
24745;SDS011;12845;52.042;6.838;2023-03-31T13:26:34;7.82;;;1.90;;
24745;SDS011;12845;52.042;6.838;2023-03-31T13:37:36;12.13;;;1.98;;
24745;SDS011;12845;52.042;6.838;2023-03-31T13:45:59;5.97;;;1.80;;
24745;SDS011;12845;52.042;6.838;2023-03-31T14:02:35;7.40;;;2.20;;
24745;SDS011;12845;52.042;6.838;2023-03-31T14:07:29;9.55;;;2.58;;
24745;SDS011;12845;52.042;6.838;2023-03-31T14:09:58;7.30;;;1.83;;
24745;SDS011;12845;52.042;6.838;2023-03-31T14:14:51;7.97;;;1.77;;
24745;SDS011;12845;52.042;6.838;2023-03-31T14:17:18;8.07;;;2.40;;
24745;SDS011;12845;52.042;6.838;2023-03-31T14:19:57;7.93;;;2.20;;
24745;SDS011;12845;52.042;6.838;2023-03-31T14:38:35;7.07;;;1.70;;
24745;SDS011;12845;52.042;6.838;2023-03-31T14:41:01;8.20;;;1.50;;
24745;SDS011;12845;52.042;6.838;2023-03-31T14:43:38;7.28;;;2.20;;
24745;SDS011;12845;52.042;6.838;2023-03-31T14:46:10;9.43;;;1.45;;
24745;SDS011;12845;52.042;6.838;2023-03-31T14:48:45;6.13;;;1.90;;
24745;SDS011;12845;52.042;6.838;2023-03-31T14:51:13;9.13;;;2.40;;
24745;SDS011;12845;52.042;6.838;2023-03-31T14:53:39;5.95;;;1.70;;
24745;SDS011;12845;52.042;6.838;2023-03-31T14:56:18;7.28;;;1.90;;
24745;SDS011;12845;52.042;6.838;2023-03-31T14:58:51;11.27;;;2.35;;
24745;SDS011;12845;52.042;6.838;2023-03-31T15:01:19;11.25;;;2.28;;
24745;SDS011;12845;52.042;6.838;2023-03-31T15:03:49;6.60;;;1.83;;
24745;SDS011;12845;52.042;6.838;2023-03-31T15:06:16;8.13;;;1.80;;
24745;SDS011;12845;52.042;6.838;2023-03-31T15:08:42;7.05;;;1.30;;
24745;SDS011;12845;52.042;6.838;2023-03-31T15:11:09;7.40;;;1.73;;
24745;SDS011;12845;52.042;6.838;2023-03-31T15:13:41;6.07;;;2.35;;
24745;SDS011;12845;52.042;6.838;2023-03-31T15:21:43;5.82;;;1.40;;
24745;SDS011;12845;52.042;6.838;2023-03-31T15:24:10;5.13;;;1.45;;
24745;SDS011;12845;52.042;6.838;2023-03-31T15:26:39;7.53;;;1.38;;
24745;SDS011;12845;52.042;6.838;2023-03-31T15:29:15;4.68;;;1.33;;
24745;SDS011;12845;52.042;6.838;2023-03-31T15:31:45;6.15;;;1.30;;
24745;SDS011;12845;52.042;6.838;2023-03-31T15:34:45;5.50;;;1.55;;
24745;SDS011;12845;52.042;6.838;2023-03-31T15:37:05;16.08;;;1.70;;
24745;SDS011;12845;52.042;6.838;2023-03-31T15:39:31;8.32;;;1.67;;
24745;SDS011;12845;52.042;6.838;2023-03-31T15:42:00;5.20;;;1.00;;
24745;SDS011;12845;52.042;6.838;2023-03-31T15:44:43;10.82;;;1.77;;
24745;SDS011;12845;52.042;6.838;2023-03-31T15:47:20;5.28;;;1.25;;
24745;SDS011;12845;52.042;6.838;2023-03-31T15:52:37;4.65;;;1.27;;
24745;SDS011;12845;52.042;6.838;2023-03-31T15:57:47;4.35;;;1.02;;
24745;SDS011;12845;52.042;6.838;2023-03-31T16:02:57;3.47;;;1.25;;
24745;SDS011;12845;52.042;6.838;2023-03-31T16:08:46;7.10;;;1.45;;
24745;SDS011;12845;52.042;6.838;2023-03-31T16:11:18;6.63;;;1.50;;
24745;SDS011;12845;52.042;6.838;2023-03-31T16:13:50;6.30;;;2.10;;
24745;SDS011;12845;52.042;6.838;2023-03-31T16:16:19;5.95;;;2.25;;
24745;SDS011;12845;52.042;6.838;2023-03-31T16:18:59;5.55;;;1.35;;
24745;SDS011;12845;52.042;6.838;2023-03-31T16:21:38;6.47;;;1.60;;
24745;SDS011;12845;52.042;6.838;2023-03-31T16:24:07;7.50;;;1.80;;
24745;SDS011;12845;52.042;6.838;2023-03-31T16:26:33;4.05;;;1.20;;
24745;SDS011;12845;52.042;6.838;2023-03-31T16:29:00;5.32;;;1.67;;
24745;SDS011;12845;52.042;6.838;2023-03-31T16:31:35;9.75;;;2.03;;
24745;SDS011;12845;52.042;6.838;2023-03-31T16:34:04;3.17;;;1.40;;
24745;SDS011;12845;52.042;6.838;2023-03-31T16:36:31;6.50;;;2.23;;
24745;SDS011;12845;52.042;6.838;2023-03-31T16:38:58;7.72;;;1.80;;
24745;SDS011;12845;52.042;6.838;2023-03-31T16:41:24;6.20;;;2.47;;
24745;SDS011;12845;52.042;6.838;2023-03-31T16:43:52;5.80;;;1.80;;
24745;SDS011;12845;52.042;6.838;2023-03-31T16:46:19;5.18;;;1.52;;
24745;SDS011;12845;52.042;6.838;2023-03-31T16:48:45;5.00;;;1.88;;
24745;SDS011;12845;52.042;6.838;2023-03-31T16:51:13;3.67;;;1.50;;
24745;SDS011;12845;52.042;6.838;2023-03-31T16:53:39;4.75;;;1.90;;
24745;SDS011;12845;52.042;6.838;2023-03-31T16:56:05;3.10;;;1.10;;
24745;SDS011;12845;52.042;6.838;2023-03-31T16:58:32;3.05;;;1.05;;
24745;SDS011;12845;52.042;6.838;2023-03-31T17:00:59;4.15;;;1.40;;
24745;SDS011;12845;52.042;6.838;2023-03-31T17:03:25;3.38;;;1.20;;
24745;SDS011;12845;52.042;6.838;2023-03-31T17:05:52;4.90;;;2.08;;
24745;SDS011;12845;52.042;6.838;2023-03-31T17:08:20;6.13;;;2.22;;
24745;SDS011;12845;52.042;6.838;2023-03-31T17:10:54;4.60;;;1.55;;
24745;SDS011;12845;52.042;6.838;2023-03-31T17:13:23;4.07;;;1.80;;
24745;SDS011;12845;52.042;6.838;2023-03-31T17:15:49;4.50;;;1.40;;
24745;SDS011;12845;52.042;6.838;2023-03-31T17:18:15;5.00;;;1.77;;
24745;SDS011;12845;52.042;6.838;2023-03-31T17:20:41;3.47;;;1.67;;
24745;SDS011;12845;52.042;6.838;2023-03-31T17:23:07;5.30;;;1.65;;
24745;SDS011;12845;52.042;6.838;2023-03-31T17:25:32;4.22;;;1.30;;
24745;SDS011;12845;52.042;6.838;2023-03-31T17:28:00;3.97;;;1.60;;
24745;SDS011;12845;52.042;6.838;2023-03-31T17:30:26;5.43;;;1.52;;
24745;SDS011;12845;52.042;6.838;2023-03-31T17:32:52;4.68;;;1.33;;
24745;SDS011;12845;52.042;6.838;2023-03-31T17:35:17;3.30;;;1.00;;
24745;SDS011;12845;52.042;6.838;2023-03-31T17:37:47;5.78;;;1.20;;
24745;SDS011;12845;52.042;6.838;2023-03-31T17:42:40;5.72;;;1.30;;
24745;SDS011;12845;52.042;6.838;2023-03-31T17:45:07;4.00;;;1.73;;
24745;SDS011;12845;52.042;6.838;2023-03-31T17:47:33;4.35;;;1.60;;
24745;SDS011;12845;52.042;6.838;2023-03-31T17:49:58;6.32;;;1.83;;
24745;SDS011;12845;52.042;6.838;2023-03-31T17:52:23;4.13;;;1.80;;
24745;SDS011;12845;52.042;6.838;2023-03-31T17:54:49;6.20;;;1.60;;
24745;SDS011;12845;52.042;6.838;2023-03-31T17:57:15;7.22;;;1.70;;
24745;SDS011;12845;52.042;6.838;2023-03-31T17:59:40;4.88;;;1.52;;
24745;SDS011;12845;52.042;6.838;2023-03-31T18:02:06;3.35;;;1.20;;
24745;SDS011;12845;52.042;6.838;2023-03-31T18:04:32;3.15;;;0.93;;
24745;SDS011;12845;52.042;6.838;2023-03-31T18:06:57;3.65;;;1.27;;
24745;SDS011;12845;52.042;6.838;2023-03-31T18:09:22;3.15;;;1.27;;
24745;SDS011;12845;52.042;6.838;2023-03-31T18:11:49;3.90;;;1.30;;